sensor_id;sensor_type;location;lat;lon;timestamp;P1;durP1;ratioP1;P2;durP2;ratioP2
16025;SDS011;8117;52.488;13.460;2023-07-30T00:02:07;2.30;;;1.80;;
16025;SDS011;8117;52.488;13.460;2023-07-30T00:04:39;2.15;;;1.73;;
16025;SDS011;8117;52.488;13.460;2023-07-30T00:07:08;2.33;;;1.55;;
16025;SDS011;8117;52.488;13.460;2023-07-30T00:09:37;3.13;;;1.83;;
16025;SDS011;8117;52.488;13.460;2023-07-30T00:12:05;1.92;;;1.52;;
16025;SDS011;8117;52.488;13.460;2023-07-30T00:14:35;2.33;;;1.98;;
16025;SDS011;8117;52.488;13.460;2023-07-30T00:17:04;2.47;;;2.05;;
16025;SDS011;8117;52.488;13.460;2023-07-30T00:19:31;2.13;;;1.65;;
16025;SDS011;8117;52.488;13.460;2023-07-30T00:21:59;3.20;;;2.38;;
16025;SDS011;8117;52.488;13.460;2023-07-30T00:24:27;2.70;;;2.20;;
16025;SDS011;8117;52.488;13.460;2023-07-30T00:26:54;2.63;;;1.80;;
16025;SDS011;8117;52.488;13.460;2023-07-30T00:35:50;2.83;;;1.85;;
16025;SDS011;8117;52.488;13.460;2023-07-30T00:38:18;2.15;;;1.55;;
16025;SDS011;8117;52.488;13.460;2023-07-30T00:40:47;3.40;;;2.03;;
16025;SDS011;8117;52.488;13.460;2023-07-30T00:43:22;1.77;;;1.30;;
16025;SDS011;8117;52.488;13.460;2023-07-30T00:45:49;2.57;;;1.93;;
16025;SDS011;8117;52.488;13.460;2023-07-30T00:48:16;3.67;;;1.67;;
16025;SDS011;8117;52.488;13.460;2023-07-30T00:51:01;1.85;;;1.55;;
16025;SDS011;8117;52.488;13.460;2023-07-30T00:57:03;2.77;;;1.70;;
16025;SDS011;8117;52.488;13.460;2023-07-30T00:59:32;2.60;;;1.40;;
16025;SDS011;8117;52.488;13.460;2023-07-30T01:01:58;1.93;;;1.50;;
16025;SDS011;8117;52.488;13.460;2023-07-30T01:04:25;3.17;;;1.93;;
16025;SDS011;8117;52.488;13.460;2023-07-30T01:06:52;3.13;;;1.43;;
16025;SDS011;8117;52.488;13.460;2023-07-30T01:09:21;1.97;;;1.50;;
16025;SDS011;8117;52.488;13.460;2023-07-30T01:11:49;1.60;;;1.50;;
16025;SDS011;8117;52.488;13.460;2023-07-30T01:14:19;2.20;;;1.83;;
16025;SDS011;8117;52.488;13.460;2023-07-30T01:16:47;3.33;;;1.87;;
16025;SDS011;8117;52.488;13.460;2023-07-30T01:19:18;2.93;;;1.53;;
16025;SDS011;8117;52.488;13.460;2023-07-30T01:21:46;2.28;;;1.65;;
16025;SDS011;8117;52.488;13.460;2023-07-30T01:24:12;2.35;;;1.98;;
16025;SDS011;8117;52.488;13.460;2023-07-30T01:26:40;2.28;;;1.50;;
16025;SDS011;8117;52.488;13.460;2023-07-30T01:29:11;3.80;;;2.10;;
16025;SDS011;8117;52.488;13.460;2023-07-30T01:31:42;2.95;;;1.58;;
16025;SDS011;8117;52.488;13.460;2023-07-30T01:34:10;2.25;;;1.88;;
16025;SDS011;8117;52.488;13.460;2023-07-30T01:36:45;1.73;;;1.58;;
16025;SDS011;8117;52.488;13.460;2023-07-30T01:39:18;2.40;;;1.40;;
16025;SDS011;8117;52.488;13.460;2023-07-30T01:41:45;2.70;;;1.60;;
16025;SDS011;8117;52.488;13.460;2023-07-30T01:44:15;1.77;;;1.25;;
16025;SDS011;8117;52.488;13.460;2023-07-30T01:46:44;3.93;;;1.77;;
16025;SDS011;8117;52.488;13.460;2023-07-30T01:49:11;2.90;;;2.00;;
16025;SDS011;8117;52.488;13.460;2023-07-30T01:51:39;3.67;;;1.70;;
16025;SDS011;8117;52.488;13.460;2023-07-30T01:54:10;2.42;;;1.33;;
16025;SDS011;8117;52.488;13.460;2023-07-30T01:56:37;1.77;;;1.53;;
16025;SDS011;8117;52.488;13.460;2023-07-30T01:59:04;1.47;;;1.37;;
16025;SDS011;8117;52.488;13.460;2023-07-30T02:01:31;2.20;;;1.47;;
16025;SDS011;8117;52.488;13.460;2023-07-30T02:04:02;1.40;;;1.30;;
16025;SDS011;8117;52.488;13.460;2023-07-30T02:06:28;2.60;;;1.63;;
16025;SDS011;8117;52.488;13.460;2023-07-30T02:08:57;2.03;;;1.27;;
16025;SDS011;8117;52.488;13.460;2023-07-30T02:11:25;2.85;;;1.52;;
16025;SDS011;8117;52.488;13.460;2023-07-30T02:13:53;1.65;;;1.40;;
16025;SDS011;8117;52.488;13.460;2023-07-30T02:16:20;2.13;;;1.30;;
16025;SDS011;8117;52.488;13.460;2023-07-30T02:18:47;2.22;;;1.60;;
16025;SDS011;8117;52.488;13.460;2023-07-30T02:21:14;1.90;;;1.33;;
16025;SDS011;8117;52.488;13.460;2023-07-30T02:23:41;2.03;;;1.48;;
16025;SDS011;8117;52.488;13.460;2023-07-30T02:26:07;4.43;;;2.23;;
16025;SDS011;8117;52.488;13.460;2023-07-30T02:28:35;2.67;;;1.27;;
16025;SDS011;8117;52.488;13.460;2023-07-30T02:31:02;3.40;;;2.03;;
16025;SDS011;8117;52.488;13.460;2023-07-30T02:33:29;1.67;;;1.40;;
16025;SDS011;8117;52.488;13.460;2023-07-30T02:35:56;1.92;;;1.75;;
16025;SDS011;8117;52.488;13.460;2023-07-30T02:38:24;2.77;;;1.53;;
16025;SDS011;8117;52.488;13.460;2023-07-30T02:40:51;1.90;;;1.40;;
16025;SDS011;8117;52.488;13.460;2023-07-30T02:43:20;1.83;;;1.65;;
16025;SDS011;8117;52.488;13.460;2023-07-30T02:45:52;2.63;;;1.93;;
16025;SDS011;8117;52.488;13.460;2023-07-30T02:48:19;3.17;;;1.73;;
16025;SDS011;8117;52.488;13.460;2023-07-30T02:50:45;2.00;;;1.53;;
16025;SDS011;8117;52.488;13.460;2023-07-30T02:53:16;1.70;;;1.60;;
16025;SDS011;8117;52.488;13.460;2023-07-30T02:55:45;2.50;;;1.73;;
16025;SDS011;8117;52.488;13.460;2023-07-30T02:58:12;2.80;;;2.47;;
16025;SDS011;8117;52.488;13.460;2023-07-30T03:00:39;1.77;;;1.60;;
16025;SDS011;8117;52.488;13.460;2023-07-30T03:03:20;1.57;;;1.47;;
16025;SDS011;8117;52.488;13.460;2023-07-30T03:05:48;2.67;;;2.03;;
16025;SDS011;8117;52.488;13.460;2023-07-30T03:08:17;2.40;;;1.70;;
16025;SDS011;8117;52.488;13.460;2023-07-30T03:10:43;2.67;;;1.97;;
16025;SDS011;8117;52.488;13.460;2023-07-30T03:13:13;2.60;;;1.60;;
16025;SDS011;8117;52.488;13.460;2023-07-30T03:15:43;2.60;;;1.87;;
16025;SDS011;8117;52.488;13.460;2023-07-30T03:18:15;2.43;;;1.87;;
16025;SDS011;8117;52.488;13.460;2023-07-30T03:20:45;2.83;;;1.73;;
16025;SDS011;8117;52.488;13.460;2023-07-30T03:23:13;1.60;;;1.50;;
16025;SDS011;8117;52.488;13.460;2023-07-30T03:25:45;3.10;;;1.90;;
16025;SDS011;8117;52.488;13.460;2023-07-30T03:28:14;1.23;;;1.13;;
16025;SDS011;8117;52.488;13.460;2023-07-30T03:30:40;2.97;;;1.87;;
16025;SDS011;8117;52.488;13.460;2023-07-30T03:33:09;3.87;;;1.80;;
16025;SDS011;8117;52.488;13.460;2023-07-30T03:35:37;2.13;;;1.80;;
16025;SDS011;8117;52.488;13.460;2023-07-30T03:38:04;2.80;;;1.63;;
16025;SDS011;8117;52.488;13.460;2023-07-30T03:40:32;2.28;;;1.73;;
16025;SDS011;8117;52.488;13.460;2023-07-30T03:42:59;1.97;;;1.50;;
16025;SDS011;8117;52.488;13.460;2023-07-30T03:45:28;3.00;;;2.30;;
16025;SDS011;8117;52.488;13.460;2023-07-30T03:47:55;2.23;;;2.03;;
16025;SDS011;8117;52.488;13.460;2023-07-30T03:50:21;2.20;;;1.67;;
16025;SDS011;8117;52.488;13.460;2023-07-30T03:53:02;2.60;;;1.53;;
16025;SDS011;8117;52.488;13.460;2023-07-30T03:55:34;2.43;;;1.90;;
16025;SDS011;8117;52.488;13.460;2023-07-30T03:58:02;2.20;;;1.87;;
16025;SDS011;8117;52.488;13.460;2023-07-30T04:00:29;3.03;;;2.10;;
16025;SDS011;8117;52.488;13.460;2023-07-30T04:02:56;2.43;;;1.67;;
16025;SDS011;8117;52.488;13.460;2023-07-30T04:05:23;2.13;;;1.60;;
16025;SDS011;8117;52.488;13.460;2023-07-30T04:07:50;3.13;;;2.27;;
16025;SDS011;8117;52.488;13.460;2023-07-30T04:10:18;2.53;;;1.88;;
16025;SDS011;8117;52.488;13.460;2023-07-30T04:12:45;1.73;;;1.63;;
16025;SDS011;8117;52.488;13.460;2023-07-30T04:15:12;2.20;;;1.77;;
16025;SDS011;8117;52.488;13.460;2023-07-30T04:21:09;2.73;;;1.83;;
16025;SDS011;8117;52.488;13.460;2023-07-30T04:23:36;2.87;;;2.07;;
16025;SDS011;8117;52.488;13.460;2023-07-30T04:26:13;1.87;;;1.53;;
16025;SDS011;8117;52.488;13.460;2023-07-30T04:28:40;2.87;;;1.60;;
16025;SDS011;8117;52.488;13.460;2023-07-30T04:31:06;2.50;;;2.00;;
16025;SDS011;8117;52.488;13.460;2023-07-30T04:33:33;2.73;;;2.10;;
16025;SDS011;8117;52.488;13.460;2023-07-30T04:36:00;3.67;;;2.33;;
16025;SDS011;8117;52.488;13.460;2023-07-30T04:38:53;2.73;;;1.90;;
16025;SDS011;8117;52.488;13.460;2023-07-30T04:41:51;2.93;;;2.00;;
16025;SDS011;8117;52.488;13.460;2023-07-30T04:44:17;2.70;;;2.00;;
16025;SDS011;8117;52.488;13.460;2023-07-30T04:46:44;2.77;;;2.03;;
16025;SDS011;8117;52.488;13.460;2023-07-30T04:49:20;2.77;;;2.10;;
16025;SDS011;8117;52.488;13.460;2023-07-30T04:51:51;2.77;;;2.13;;
16025;SDS011;8117;52.488;13.460;2023-07-30T04:54:27;2.57;;;2.37;;
16025;SDS011;8117;52.488;13.460;2023-07-30T04:57:12;2.37;;;1.70;;
16025;SDS011;8117;52.488;13.460;2023-07-30T04:59:47;2.37;;;2.00;;
16025;SDS011;8117;52.488;13.460;2023-07-30T05:02:15;2.30;;;2.10;;
16025;SDS011;8117;52.488;13.460;2023-07-30T05:04:55;2.03;;;1.83;;
16025;SDS011;8117;52.488;13.460;2023-07-30T05:10:26;2.50;;;2.10;;
16025;SDS011;8117;52.488;13.460;2023-07-30T05:13:09;1.97;;;1.57;;
16025;SDS011;8117;52.488;13.460;2023-07-30T05:15:38;3.00;;;2.03;;
16025;SDS011;8117;52.488;13.460;2023-07-30T05:18:05;4.20;;;1.80;;
16025;SDS011;8117;52.488;13.460;2023-07-30T05:20:35;2.70;;;1.90;;
16025;SDS011;8117;52.488;13.460;2023-07-30T05:23:05;2.37;;;1.60;;
16025;SDS011;8117;52.488;13.460;2023-07-30T05:25:39;2.13;;;1.80;;
16025;SDS011;8117;52.488;13.460;2023-07-30T05:28:06;1.80;;;1.70;;
16025;SDS011;8117;52.488;13.460;2023-07-30T05:30:35;2.40;;;1.60;;
16025;SDS011;8117;52.488;13.460;2023-07-30T05:33:14;1.80;;;1.47;;
16025;SDS011;8117;52.488;13.460;2023-07-30T05:35:42;1.93;;;1.40;;
16025;SDS011;8117;52.488;13.460;2023-07-30T05:38:10;1.53;;;1.43;;
16025;SDS011;8117;52.488;13.460;2023-07-30T05:40:37;1.60;;;1.30;;
16025;SDS011;8117;52.488;13.460;2023-07-30T05:43:06;2.17;;;1.70;;
16025;SDS011;8117;52.488;13.460;2023-07-30T05:45:35;1.60;;;1.30;;
16025;SDS011;8117;52.488;13.460;2023-07-30T05:51:28;1.93;;;1.70;;
16025;SDS011;8117;52.488;13.460;2023-07-30T05:54:22;1.87;;;1.67;;
16025;SDS011;8117;52.488;13.460;2023-07-30T05:56:51;1.50;;;1.37;;
16025;SDS011;8117;52.488;13.460;2023-07-30T05:59:18;1.40;;;1.30;;
16025;SDS011;8117;52.488;13.460;2023-07-30T06:01:49;1.93;;;1.57;;
16025;SDS011;8117;52.488;13.460;2023-07-30T06:04:17;2.07;;;1.33;;
16025;SDS011;8117;52.488;13.460;2023-07-30T06:06:44;2.67;;;1.40;;
16025;SDS011;8117;52.488;13.460;2023-07-30T06:09:11;1.63;;;1.50;;
16025;SDS011;8117;52.488;13.460;2023-07-30T06:11:38;1.07;;;0.97;;
16025;SDS011;8117;52.488;13.460;2023-07-30T06:14:05;1.67;;;1.47;;
16025;SDS011;8117;52.488;13.460;2023-07-30T06:16:32;1.13;;;0.90;;
16025;SDS011;8117;52.488;13.460;2023-07-30T06:19:00;1.23;;;1.13;;
16025;SDS011;8117;52.488;13.460;2023-07-30T06:27:12;1.53;;;1.20;;
16025;SDS011;8117;52.488;13.460;2023-07-30T06:29:47;1.93;;;1.57;;
16025;SDS011;8117;52.488;13.460;2023-07-30T06:32:13;1.90;;;1.10;;
16025;SDS011;8117;52.488;13.460;2023-07-30T06:34:42;2.10;;;1.60;;
16025;SDS011;8117;52.488;13.460;2023-07-30T06:37:11;1.10;;;1.00;;
16025;SDS011;8117;52.488;13.460;2023-07-30T06:39:38;1.20;;;1.10;;
16025;SDS011;8117;52.488;13.460;2023-07-30T06:42:05;1.38;;;1.20;;
16025;SDS011;8117;52.488;13.460;2023-07-30T06:44:32;1.53;;;1.30;;
16025;SDS011;8117;52.488;13.460;2023-07-30T06:46:59;3.13;;;1.20;;
16025;SDS011;8117;52.488;13.460;2023-07-30T06:49:26;1.17;;;1.07;;
16025;SDS011;8117;52.488;13.460;2023-07-30T07:05:15;1.75;;;1.50;;
16025;SDS011;8117;52.488;13.460;2023-07-30T07:07:43;1.43;;;1.30;;
16025;SDS011;8117;52.488;13.460;2023-07-30T07:10:50;0.87;;;0.87;;
16025;SDS011;8117;52.488;13.460;2023-07-30T07:13:17;1.83;;;1.23;;
16025;SDS011;8117;52.488;13.460;2023-07-30T07:15:44;3.63;;;1.30;;
16025;SDS011;8117;52.488;13.460;2023-07-30T07:18:11;1.05;;;0.95;;
16025;SDS011;8117;52.488;13.460;2023-07-30T07:20:39;0.90;;;0.85;;
16025;SDS011;8117;52.488;13.460;2023-07-30T07:23:06;0.95;;;0.90;;
16025;SDS011;8117;52.488;13.460;2023-07-30T07:25:34;0.90;;;0.85;;
16025;SDS011;8117;52.488;13.460;2023-07-30T07:28:07;1.50;;;1.13;;
16025;SDS011;8117;52.488;13.460;2023-07-30T07:30:44;1.48;;;1.30;;
16025;SDS011;8117;52.488;13.460;2023-07-30T07:33:16;1.23;;;1.10;;
16025;SDS011;8117;52.488;13.460;2023-07-30T07:35:46;1.13;;;1.02;;
16025;SDS011;8117;52.488;13.460;2023-07-30T07:38:26;2.00;;;1.40;;
16025;SDS011;8117;52.488;13.460;2023-07-30T07:43:41;1.55;;;1.40;;
16025;SDS011;8117;52.488;13.460;2023-07-30T07:46:19;1.83;;;1.25;;
16025;SDS011;8117;52.488;13.460;2023-07-30T07:48:54;1.58;;;1.35;;
16025;SDS011;8117;52.488;13.460;2023-07-30T07:51:22;1.60;;;1.10;;
16025;SDS011;8117;52.488;13.460;2023-07-30T07:53:49;1.92;;;1.10;;
16025;SDS011;8117;52.488;13.460;2023-07-30T07:56:16;1.92;;;1.50;;
16025;SDS011;8117;52.488;13.460;2023-07-30T07:58:43;1.73;;;1.63;;
16025;SDS011;8117;52.488;13.460;2023-07-30T08:01:12;1.85;;;1.40;;
16025;SDS011;8117;52.488;13.460;2023-07-30T08:03:39;1.70;;;1.20;;
16025;SDS011;8117;52.488;13.460;2023-07-30T08:06:49;1.10;;;1.05;;
16025;SDS011;8117;52.488;13.460;2023-07-30T08:09:30;1.45;;;1.20;;
16025;SDS011;8117;52.488;13.460;2023-07-30T08:12:18;1.23;;;1.13;;
16025;SDS011;8117;52.488;13.460;2023-07-30T08:14:48;1.85;;;1.45;;
16025;SDS011;8117;52.488;13.460;2023-07-30T08:17:54;2.45;;;1.63;;
16025;SDS011;8117;52.488;13.460;2023-07-30T08:20:58;1.25;;;1.15;;
16025;SDS011;8117;52.488;13.460;2023-07-30T08:27:17;1.17;;;1.05;;
16025;SDS011;8117;52.488;13.460;2023-07-30T08:30:09;1.48;;;1.02;;
16025;SDS011;8117;52.488;13.460;2023-07-30T08:32:47;3.17;;;1.33;;
16025;SDS011;8117;52.488;13.460;2023-07-30T08:35:44;1.13;;;1.10;;
16025;SDS011;8117;52.488;13.460;2023-07-30T08:48:21;1.10;;;0.90;;
16025;SDS011;8117;52.488;13.460;2023-07-30T08:54:59;5.47;;;1.20;;
16025;SDS011;8117;52.488;13.460;2023-07-30T08:58:03;1.38;;;1.05;;
16025;SDS011;8117;52.488;13.460;2023-07-30T09:04:56;1.27;;;1.17;;
16025;SDS011;8117;52.488;13.460;2023-07-30T09:08:04;1.42;;;1.23;;
16025;SDS011;8117;52.488;13.460;2023-07-30T09:11:15;0.85;;;0.82;;
16025;SDS011;8117;52.488;13.460;2023-07-30T09:14:12;0.82;;;0.82;;
16025;SDS011;8117;52.488;13.460;2023-07-30T09:20:47;1.20;;;0.82;;
16025;SDS011;8117;52.488;13.460;2023-07-30T09:27:04;1.05;;;0.98;;
16025;SDS011;8117;52.488;13.460;2023-07-30T09:40:19;0.60;;;0.60;;
16025;SDS011;8117;52.488;13.460;2023-07-30T10:07:46;0.70;;;0.70;;
16025;SDS011;8117;52.488;13.460;2023-07-30T10:11:49;1.05;;;0.70;;
16025;SDS011;8117;52.488;13.460;2023-07-30T10:14:21;0.80;;;0.70;;
16025;SDS011;8117;52.488;13.460;2023-07-30T10:40:39;1.10;;;0.95;;
16025;SDS011;8117;52.488;13.460;2023-07-30T10:43:16;1.45;;;0.70;;
16025;SDS011;8117;52.488;13.460;2023-07-30T10:45:49;1.33;;;0.88;;
16025;SDS011;8117;52.488;13.460;2023-07-30T10:48:16;2.72;;;1.42;;
16025;SDS011;8117;52.488;13.460;2023-07-30T10:50:43;1.48;;;0.90;;
16025;SDS011;8117;52.488;13.460;2023-07-30T10:53:21;1.70;;;0.57;;
16025;SDS011;8117;52.488;13.460;2023-07-30T10:59:32;1.02;;;0.93;;
16025;SDS011;8117;52.488;13.460;2023-07-30T11:02:04;1.67;;;1.23;;
16025;SDS011;8117;52.488;13.460;2023-07-30T11:04:40;0.85;;;0.85;;
16025;SDS011;8117;52.488;13.460;2023-07-30T11:07:20;0.63;;;0.63;;
16025;SDS011;8117;52.488;13.460;2023-07-30T11:13:24;0.93;;;0.60;;
16025;SDS011;8117;52.488;13.460;2023-07-30T11:18:07;0.80;;;0.80;;
16025;SDS011;8117;52.488;13.460;2023-07-30T11:19:21;1.02;;;0.65;;
16025;SDS011;8117;52.488;13.460;2023-07-30T11:21:51;0.40;;;0.40;;
16025;SDS011;8117;52.488;13.460;2023-07-30T11:24:21;0.68;;;0.60;;
16025;SDS011;8117;52.488;13.460;2023-07-30T11:27:27;0.43;;;0.43;;
16025;SDS011;8117;52.488;13.460;2023-07-30T11:30:24;0.90;;;0.75;;
16025;SDS011;8117;52.488;13.460;2023-07-30T11:32:53;1.58;;;0.55;;
16025;SDS011;8117;52.488;13.460;2023-07-30T11:35:34;0.50;;;0.50;;
16025;SDS011;8117;52.488;13.460;2023-07-30T11:38:28;0.88;;;0.65;;
16025;SDS011;8117;52.488;13.460;2023-07-30T11:41:06;2.33;;;0.70;;
16025;SDS011;8117;52.488;13.460;2023-07-30T11:44:02;0.50;;;0.50;;
16025;SDS011;8117;52.488;13.460;2023-07-30T11:46:34;0.93;;;0.60;;
16025;SDS011;8117;52.488;13.460;2023-07-30T11:49:12;1.08;;;0.55;;
16025;SDS011;8117;52.488;13.460;2023-07-30T11:51:42;1.00;;;0.73;;
16025;SDS011;8117;52.488;13.460;2023-07-30T11:54:26;1.42;;;0.65;;
16025;SDS011;8117;52.488;13.460;2023-07-30T11:57:05;0.40;;;0.40;;
16025;SDS011;8117;52.488;13.460;2023-07-30T12:03:02;2.78;;;0.82;;
16025;SDS011;8117;52.488;13.460;2023-07-30T12:06:05;1.70;;;0.52;;
16025;SDS011;8117;52.488;13.460;2023-07-30T12:08:33;2.10;;;0.63;;
16025;SDS011;8117;52.488;13.460;2023-07-30T12:11:02;0.50;;;0.50;;
16025;SDS011;8117;52.488;13.460;2023-07-30T12:13:31;2.28;;;0.55;;
16025;SDS011;8117;52.488;13.460;2023-07-30T12:19:04;1.90;;;0.80;;
16025;SDS011;8117;52.488;13.460;2023-07-30T12:26:25;0.65;;;0.50;;
16025;SDS011;8117;52.488;13.460;2023-07-30T12:28:40;2.22;;;0.60;;
16025;SDS011;8117;52.488;13.460;2023-07-30T12:48:24;0.68;;;0.68;;
16025;SDS011;8117;52.488;13.460;2023-07-30T13:01:07;1.08;;;0.70;;
16025;SDS011;8117;52.488;13.460;2023-07-30T13:07:06;0.77;;;0.75;;
16025;SDS011;8117;52.488;13.460;2023-07-30T13:10:13;0.80;;;0.65;;
16025;SDS011;8117;52.488;13.460;2023-07-30T13:16:12;0.50;;;0.50;;
16025;SDS011;8117;52.488;13.460;2023-07-30T13:19:00;1.35;;;0.70;;
16025;SDS011;8117;52.488;13.460;2023-07-30T13:25:11;1.88;;;0.80;;
16025;SDS011;8117;52.488;13.460;2023-07-30T13:28:04;1.25;;;0.88;;
16025;SDS011;8117;52.488;13.460;2023-07-30T13:30:35;1.40;;;0.60;;
16025;SDS011;8117;52.488;13.460;2023-07-30T13:33:26;0.68;;;0.50;;
16025;SDS011;8117;52.488;13.460;2023-07-30T13:36:27;0.50;;;0.45;;
16025;SDS011;8117;52.488;13.460;2023-07-30T13:48:36;1.05;;;0.95;;
16025;SDS011;8117;52.488;13.460;2023-07-30T13:51:18;1.40;;;0.95;;
16025;SDS011;8117;52.488;13.460;2023-07-30T13:54:21;1.23;;;0.65;;
16025;SDS011;8117;52.488;13.460;2023-07-30T13:57:24;0.50;;;0.47;;
16025;SDS011;8117;52.488;13.460;2023-07-30T14:00:13;1.02;;;0.73;;
16025;SDS011;8117;52.488;13.460;2023-07-30T14:03:20;0.73;;;0.60;;
16025;SDS011;8117;52.488;13.460;2023-07-30T14:06:00;1.98;;;0.63;;
16025;SDS011;8117;52.488;13.460;2023-07-30T14:09:11;1.23;;;1.00;;
16025;SDS011;8117;52.488;13.460;2023-07-30T14:12:10;1.02;;;0.75;;
16025;SDS011;8117;52.488;13.460;2023-07-30T14:24:59;3.33;;;0.50;;
16025;SDS011;8117;52.488;13.460;2023-07-30T14:27:40;0.80;;;0.60;;
16025;SDS011;8117;52.488;13.460;2023-07-30T14:30:44;1.38;;;0.60;;
16025;SDS011;8117;52.488;13.460;2023-07-30T14:33:05;0.30;;;0.30;;
16025;SDS011;8117;52.488;13.460;2023-07-30T14:40:55;0.95;;;0.40;;
16025;SDS011;8117;52.488;13.460;2023-07-30T14:45:33;1.20;;;0.45;;
16025;SDS011;8117;52.488;13.460;2023-07-30T14:48:14;0.55;;;0.47;;
16025;SDS011;8117;52.488;13.460;2023-07-30T14:54:08;0.80;;;0.50;;
16025;SDS011;8117;52.488;13.460;2023-07-30T14:56:40;0.50;;;0.40;;
16025;SDS011;8117;52.488;13.460;2023-07-30T14:59:09;2.50;;;0.82;;
16025;SDS011;8117;52.488;13.460;2023-07-30T15:01:37;0.77;;;0.45;;
16025;SDS011;8117;52.488;13.460;2023-07-30T15:04:04;0.45;;;0.45;;
16025;SDS011;8117;52.488;13.460;2023-07-30T15:06:32;0.88;;;0.60;;
16025;SDS011;8117;52.488;13.460;2023-07-30T15:09:02;0.65;;;0.63;;
16025;SDS011;8117;52.488;13.460;2023-07-30T15:11:28;0.80;;;0.60;;
16025;SDS011;8117;52.488;13.460;2023-07-30T15:13:56;1.15;;;0.70;;
16025;SDS011;8117;52.488;13.460;2023-07-30T15:16:25;0.90;;;0.82;;
16025;SDS011;8117;52.488;13.460;2023-07-30T15:18:56;0.88;;;0.70;;
16025;SDS011;8117;52.488;13.460;2023-07-30T15:21:23;1.70;;;0.70;;
16025;SDS011;8117;52.488;13.460;2023-07-30T15:23:52;0.73;;;0.70;;
16025;SDS011;8117;52.488;13.460;2023-07-30T15:26:33;1.38;;;0.73;;
16025;SDS011;8117;52.488;13.460;2023-07-30T15:29:12;1.23;;;0.77;;
16025;SDS011;8117;52.488;13.460;2023-07-30T15:31:40;0.70;;;0.60;;
16025;SDS011;8117;52.488;13.460;2023-07-30T15:34:11;1.05;;;0.77;;
16025;SDS011;8117;52.488;13.460;2023-07-30T15:36:45;1.45;;;0.90;;
16025;SDS011;8117;52.488;13.460;2023-07-30T15:43:57;1.13;;;0.63;;
16025;SDS011;8117;52.488;13.460;2023-07-30T15:45:46;2.47;;;0.50;;
16025;SDS011;8117;52.488;13.460;2023-07-30T15:48:14;0.98;;;0.70;;
16025;SDS011;8117;52.488;13.460;2023-07-30T15:50:55;1.08;;;0.60;;
16025;SDS011;8117;52.488;13.460;2023-07-30T15:53:21;0.90;;;0.75;;
16025;SDS011;8117;52.488;13.460;2023-07-30T15:56:11;0.57;;;0.57;;
16025;SDS011;8117;52.488;13.460;2023-07-30T15:58:47;0.63;;;0.50;;
16025;SDS011;8117;52.488;13.460;2023-07-30T16:01:17;2.45;;;0.88;;
16025;SDS011;8117;52.488;13.460;2023-07-30T16:03:49;0.60;;;0.60;;
16025;SDS011;8117;52.488;13.460;2023-07-30T16:06:25;0.77;;;0.40;;
16025;SDS011;8117;52.488;13.460;2023-07-30T16:08:53;1.60;;;0.60;;
16025;SDS011;8117;52.488;13.460;2023-07-30T16:11:26;0.70;;;0.40;;
16025;SDS011;8117;52.488;13.460;2023-07-30T16:13:58;0.52;;;0.38;;
16025;SDS011;8117;52.488;13.460;2023-07-30T16:16:26;1.38;;;1.23;;
16025;SDS011;8117;52.488;13.460;2023-07-30T16:19:04;0.47;;;0.40;;
16025;SDS011;8117;52.488;13.460;2023-07-30T16:21:34;0.43;;;0.43;;
16025;SDS011;8117;52.488;13.460;2023-07-30T16:24:03;0.70;;;0.70;;
16025;SDS011;8117;52.488;13.460;2023-07-30T16:30:30;0.50;;;0.50;;
16025;SDS011;8117;52.488;13.460;2023-07-30T16:33:00;0.75;;;0.63;;
16025;SDS011;8117;52.488;13.460;2023-07-30T16:35:40;0.57;;;0.50;;
16025;SDS011;8117;52.488;13.460;2023-07-30T16:38:18;0.43;;;0.30;;
16025;SDS011;8117;52.488;13.460;2023-07-30T16:40:45;1.00;;;0.80;;
16025;SDS011;8117;52.488;13.460;2023-07-30T16:43:16;0.70;;;0.47;;
16025;SDS011;8117;52.488;13.460;2023-07-30T16:45:58;0.73;;;0.65;;
16025;SDS011;8117;52.488;13.460;2023-07-30T16:48:31;0.47;;;0.40;;
16025;SDS011;8117;52.488;13.460;2023-07-30T16:51:02;0.50;;;0.50;;
16025;SDS011;8117;52.488;13.460;2023-07-30T16:56:35;0.77;;;0.52;;
16025;SDS011;8117;52.488;13.460;2023-07-30T16:59:08;0.80;;;0.60;;
16025;SDS011;8117;52.488;13.460;2023-07-30T17:01:46;0.40;;;0.40;;
16025;SDS011;8117;52.488;13.460;2023-07-30T17:05:00;0.98;;;0.85;;
16025;SDS011;8117;52.488;13.460;2023-07-30T17:07:42;0.82;;;0.70;;
16025;SDS011;8117;52.488;13.460;2023-07-30T17:13:55;0.55;;;0.50;;
16025;SDS011;8117;52.488;13.460;2023-07-30T17:16:53;0.60;;;0.60;;
16025;SDS011;8117;52.488;13.460;2023-07-30T17:22:24;1.77;;;0.65;;
16025;SDS011;8117;52.488;13.460;2023-07-30T17:24:59;1.00;;;0.82;;
16025;SDS011;8117;52.488;13.460;2023-07-30T17:27:35;1.23;;;0.80;;
16025;SDS011;8117;52.488;13.460;2023-07-30T17:30:46;0.50;;;0.50;;
16025;SDS011;8117;52.488;13.460;2023-07-30T17:33:15;0.63;;;0.63;;
16025;SDS011;8117;52.488;13.460;2023-07-30T17:39:21;1.13;;;0.82;;
16025;SDS011;8117;52.488;13.460;2023-07-30T17:45:38;0.45;;;0.45;;
16025;SDS011;8117;52.488;13.460;2023-07-30T18:04:26;1.17;;;0.80;;
16025;SDS011;8117;52.488;13.460;2023-07-30T18:07:09;0.77;;;0.70;;
16025;SDS011;8117;52.488;13.460;2023-07-30T18:12:55;1.45;;;1.00;;
16025;SDS011;8117;52.488;13.460;2023-07-30T18:16:14;1.27;;;0.82;;
16025;SDS011;8117;52.488;13.460;2023-07-30T18:18:52;1.27;;;0.90;;
16025;SDS011;8117;52.488;13.460;2023-07-30T18:22:00;1.23;;;0.63;;
16025;SDS011;8117;52.488;13.460;2023-07-30T18:24:33;0.93;;;0.85;;
16025;SDS011;8117;52.488;13.460;2023-07-30T18:27:22;1.10;;;0.70;;
16025;SDS011;8117;52.488;13.460;2023-07-30T18:29:58;3.17;;;1.25;;
16025;SDS011;8117;52.488;13.460;2023-07-30T18:32:32;1.95;;;0.95;;
16025;SDS011;8117;52.488;13.460;2023-07-30T18:35:07;2.05;;;1.58;;
16025;SDS011;8117;52.488;13.460;2023-07-30T18:40:52;0.70;;;0.70;;
16025;SDS011;8117;52.488;13.460;2023-07-30T18:43:29;1.00;;;0.75;;
16025;SDS011;8117;52.488;13.460;2023-07-30T18:46:06;1.50;;;0.82;;
16025;SDS011;8117;52.488;13.460;2023-07-30T18:48:33;3.47;;;0.85;;
16025;SDS011;8117;52.488;13.460;2023-07-30T18:51:09;1.98;;;1.35;;
16025;SDS011;8117;52.488;13.460;2023-07-30T18:53:54;1.30;;;0.90;;
16025;SDS011;8117;52.488;13.460;2023-07-30T18:56:28;1.52;;;0.88;;
16025;SDS011;8117;52.488;13.460;2023-07-30T18:59:09;3.83;;;1.08;;
16025;SDS011;8117;52.488;13.460;2023-07-30T20:35:28;1.17;;;1.10;;
16025;SDS011;8117;52.488;13.460;2023-07-30T20:49:26;3.50;;;1.50;;
16025;SDS011;8117;52.488;13.460;2023-07-30T20:52:05;1.73;;;1.07;;
16025;SDS011;8117;52.488;13.460;2023-07-30T20:54:32;4.17;;;1.10;;
16025;SDS011;8117;52.488;13.460;2023-07-30T20:57:01;2.70;;;0.90;;
16025;SDS011;8117;52.488;13.460;2023-07-30T20:59:31;1.43;;;1.30;;
16025;SDS011;8117;52.488;13.460;2023-07-30T21:02:00;2.00;;;1.65;;
16025;SDS011;8117;52.488;13.460;2023-07-30T21:04:27;1.08;;;0.93;;
16025;SDS011;8117;52.488;13.460;2023-07-30T21:06:54;1.10;;;0.85;;
16025;SDS011;8117;52.488;13.460;2023-07-30T21:09:22;2.63;;;1.17;;
16025;SDS011;8117;52.488;13.460;2023-07-30T21:11:49;3.40;;;1.08;;
16025;SDS011;8117;52.488;13.460;2023-07-30T21:14:15;1.73;;;1.27;;
16025;SDS011;8117;52.488;13.460;2023-07-30T21:16:42;2.38;;;1.25;;
16025;SDS011;8117;52.488;13.460;2023-07-30T21:19:09;1.55;;;1.13;;
16025;SDS011;8117;52.488;13.460;2023-07-30T21:21:36;1.53;;;1.20;;
16025;SDS011;8117;52.488;13.460;2023-07-30T21:24:02;2.60;;;1.13;;
16025;SDS011;8117;52.488;13.460;2023-07-30T21:26:31;1.85;;;1.08;;
16025;SDS011;8117;52.488;13.460;2023-07-30T21:28:57;1.48;;;1.23;;
16025;SDS011;8117;52.488;13.460;2023-07-30T21:31:24;2.10;;;1.33;;
16025;SDS011;8117;52.488;13.460;2023-07-30T21:33:51;2.93;;;1.57;;
16025;SDS011;8117;52.488;13.460;2023-07-30T21:36:18;1.40;;;1.07;;
16025;SDS011;8117;52.488;13.460;2023-07-30T21:38:44;3.47;;;1.77;;
16025;SDS011;8117;52.488;13.460;2023-07-30T21:41:17;3.37;;;2.03;;